createdAt,value
2017-08-17T00:01:57.410Z,62.63
2017-08-17T00:04:24.934Z,62.63
2017-08-17T00:06:52.483Z,62.83
2017-08-17T00:09:20.000Z,62.61
2017-08-17T00:11:47.548Z,62.71
2017-08-17T00:14:15.070Z,62.71
2017-08-17T00:16:42.643Z,62.54
2017-08-17T00:19:10.195Z,62.54
2017-08-17T00:21:37.713Z,62.61
2017-08-17T00:24:05.264Z,62.54
2017-08-17T00:26:32.781Z,62.72
2017-08-17T00:29:00.339Z,62.78
2017-08-17T00:31:27.878Z,62.63
2017-08-17T00:33:55.397Z,62.75
2017-08-17T00:36:22.950Z,62.70
2017-08-17T00:38:50.581Z,62.46
2017-08-17T00:41:18.140Z,62.66
2017-08-17T00:43:45.657Z,62.63
2017-08-17T00:46:13.214Z,62.64
2017-08-17T00:48:40.736Z,62.72
2017-08-17T00:51:08.254Z,62.80
2017-08-17T00:53:35.809Z,62.86
2017-08-17T00:56:03.320Z,62.83
2017-08-17T00:58:30.954Z,62.75
2017-08-17T01:00:58.470Z,62.58
2017-08-17T01:03:26.020Z,62.61
2017-08-17T01:05:53.541Z,62.56
2017-08-17T01:08:21.063Z,62.71
2017-08-17T01:10:48.618Z,62.51
2017-08-17T01:13:16.138Z,62.43
2017-08-17T01:15:43.685Z,62.54
2017-08-17T01:18:11.210Z,62.50
2017-08-17T01:20:38.769Z,62.57
2017-08-17T01:23:06.283Z,62.64
2017-08-17T01:25:33.862Z,62.78
2017-08-17T01:28:01.417Z,62.80
2017-08-17T01:30:28.934Z,62.69
2017-08-17T01:32:56.498Z,62.79
2017-08-17T01:35:24.036Z,62.47
2017-08-17T01:37:51.611Z,62.44
2017-08-17T01:40:19.124Z,62.75
2017-08-17T01:42:46.638Z,62.77
2017-08-17T01:45:14.189Z,62.65
2017-08-17T01:47:41.738Z,62.52
2017-08-17T01:50:09.313Z,62.50
2017-08-17T01:52:36.862Z,62.48
2017-08-17T01:55:04.445Z,62.65
2017-08-17T01:57:31.969Z,62.59
2017-08-17T01:59:59.487Z,62.54
2017-08-17T02:02:27.054Z,62.80
2017-08-17T02:04:54.581Z,62.83
2017-08-17T02:07:22.140Z,62.63
2017-08-17T02:09:49.695Z,62.71
2017-08-17T02:12:17.257Z,62.74
2017-08-17T02:14:44.798Z,62.56
2017-08-17T02:17:12.315Z,62.77
2017-08-17T02:19:39.877Z,62.76
2017-08-17T02:22:07.406Z,62.89
2017-08-17T02:24:34.953Z,62.88
2017-08-17T02:27:02.494Z,62.84
2017-08-17T02:29:30.061Z,62.73
2017-08-17T02:31:57.574Z,62.77
2017-08-17T02:34:25.106Z,62.56
2017-08-17T02:36:52.665Z,62.73
2017-08-17T02:39:20.184Z,62.63
2017-08-17T02:41:47.747Z,62.53
2017-08-17T02:44:15.371Z,62.56
2017-08-17T02:46:43.194Z,62.36
2017-08-17T02:49:10.750Z,62.42
2017-08-17T02:51:38.259Z,62.47
2017-08-17T02:54:05.821Z,62.22
2017-08-17T02:56:33.338Z,62.24
2017-08-17T02:59:00.860Z,62.30
2017-08-17T03:01:28.421Z,62.26
2017-08-17T03:03:55.949Z,62.30
2017-08-17T03:06:23.530Z,62.13
2017-08-17T03:08:51.037Z,61.99
2017-08-17T03:11:18.549Z,61.88
2017-08-17T03:13:47.036Z,61.74
2017-08-17T03:16:14.558Z,61.63
2017-08-17T03:18:42.170Z,61.56
2017-08-17T03:21:09.709Z,61.53
2017-08-17T03:23:37.294Z,61.57
2017-08-17T03:26:04.817Z,61.47
2017-08-17T03:28:32.357Z,61.69
2017-08-17T03:30:59.924Z,61.71
2017-08-17T03:33:27.463Z,61.98
2017-08-17T03:35:55.029Z,61.94
2017-08-17T03:38:22.562Z,61.98
2017-08-17T03:40:50.116Z,61.70
2017-08-17T03:43:17.647Z,61.84
2017-08-17T03:45:45.172Z,62.06
2017-08-17T03:48:12.731Z,62.13
2017-08-17T03:50:40.246Z,62.00
2017-08-17T03:53:07.797Z,62.12
2017-08-17T03:55:35.328Z,62.24
2017-08-17T03:58:02.921Z,62.10
2017-08-17T04:00:30.477Z,62.07
2017-08-17T04:02:57.999Z,62.11
2017-08-17T04:05:25.552Z,62.09
2017-08-17T04:07:53.079Z,62.57
2017-08-17T04:10:20.650Z,62.84
2017-08-17T04:12:48.177Z,63.13
2017-08-17T04:15:15.694Z,63.34
2017-08-17T04:17:43.243Z,63.78
2017-08-17T04:20:10.856Z,63.87
2017-08-17T04:22:38.408Z,63.88
2017-08-17T04:25:05.918Z,63.91
2017-08-17T04:27:33.482Z,63.81
2017-08-17T04:30:00.997Z,64.18
2017-08-17T04:32:28.515Z,64.32
2017-08-17T04:34:56.079Z,64.10
2017-08-17T04:37:23.594Z,63.71
2017-08-17T04:39:51.158Z,63.76
2017-08-17T04:42:18.675Z,63.50
2017-08-17T04:44:46.349Z,63.04
2017-08-17T04:47:13.870Z,62.91
2017-08-17T04:49:41.385Z,62.71
2017-08-17T04:52:12.304Z,62.64
2017-08-17T04:54:39.833Z,62.65
2017-08-17T04:57:24.758Z,62.55
2017-08-17T04:59:52.283Z,62.70
2017-08-17T05:02:20.691Z,62.55
2017-08-17T05:04:48.228Z,62.72
2017-08-17T05:07:15.763Z,63.09
2017-08-17T05:09:43.314Z,63.32
2017-08-17T05:12:10.834Z,63.31
2017-08-17T05:14:38.386Z,63.43
2017-08-17T05:17:05.914Z,63.26
2017-08-17T05:19:33.587Z,63.47
2017-08-17T05:22:01.108Z,63.28
2017-08-17T05:24:28.708Z,63.32
2017-08-17T05:26:56.266Z,63.33
2017-08-17T05:29:23.792Z,63.36
2017-08-17T05:31:51.364Z,63.19
2017-08-17T05:34:18.882Z,63.16
2017-08-17T05:36:46.396Z,63.22
2017-08-17T05:39:13.943Z,63.21
2017-08-17T05:41:41.462Z,63.31
2017-08-17T05:44:09.042Z,63.14
2017-08-17T05:46:36.557Z,63.17
2017-08-17T05:49:04.073Z,63.21
2017-08-17T05:51:31.627Z,63.27
2017-08-17T05:53:59.150Z,63.42
2017-08-17T05:56:26.722Z,63.27
2017-08-17T05:58:54.248Z,63.40
2017-08-17T06:01:21.771Z,63.35
2017-08-17T06:03:49.317Z,63.43
2017-08-17T06:06:16.833Z,63.30
2017-08-17T06:08:44.380Z,63.53
2017-08-17T06:11:11.906Z,63.39
2017-08-17T06:13:39.470Z,63.51
2017-08-17T06:16:06.989Z,63.50
2017-08-17T06:18:34.504Z,63.60
2017-08-17T06:21:02.057Z,63.52
2017-08-17T06:23:29.581Z,63.42
2017-08-17T06:25:57.134Z,63.45
2017-08-17T06:28:24.650Z,63.27
2017-08-17T06:30:52.207Z,63.44
2017-08-17T06:33:19.724Z,63.35
2017-08-17T06:35:47.237Z,63.23
2017-08-17T06:38:14.791Z,63.47
2017-08-17T06:40:42.312Z,63.38
2017-08-17T06:43:09.893Z,63.45
2017-08-17T06:45:37.531Z,63.48
2017-08-17T06:48:05.085Z,63.51
2017-08-17T06:50:32.631Z,63.38
2017-08-17T06:53:01.778Z,63.24
2017-08-17T06:55:30.352Z,63.37
2017-08-17T06:57:59.055Z,63.51
2017-08-17T07:00:27.670Z,63.41
2017-08-17T07:02:56.444Z,63.43
2017-08-17T07:05:25.019Z,63.35
2017-08-17T07:07:53.194Z,63.25
2017-08-17T07:10:22.278Z,63.44
2017-08-17T07:12:51.361Z,63.44
2017-08-17T07:15:20.359Z,63.43
2017-08-17T07:17:49.267Z,63.37
2017-08-17T07:20:18.234Z,63.50
2017-08-17T07:22:46.224Z,63.49
2017-08-17T07:25:15.360Z,63.25
2017-08-17T07:27:44.185Z,63.39
2017-08-17T07:30:13.179Z,63.40
2017-08-17T07:32:42.246Z,63.49
2017-08-17T07:35:10.084Z,63.39
2017-08-17T07:37:39.067Z,63.38
2017-08-17T07:40:07.122Z,63.32
2017-08-17T07:42:35.901Z,63.41
2017-08-17T07:45:03.762Z,63.25
2017-08-17T07:47:32.206Z,63.39
2017-08-17T07:50:00.745Z,63.27
2017-08-17T07:52:29.722Z,63.39
2017-08-17T07:54:58.882Z,63.18
2017-08-17T07:57:27.325Z,63.40
2017-08-17T07:59:56.186Z,63.26
2017-08-17T08:02:25.154Z,63.29
2017-08-17T08:04:53.444Z,63.33
2017-08-17T08:07:22.039Z,63.23
2017-08-17T08:09:50.518Z,63.31
2017-08-17T08:12:19.276Z,63.29
2017-08-17T08:14:48.123Z,63.00
2017-08-17T08:17:15.674Z,63.08
2017-08-17T08:19:43.188Z,63.06
2017-08-17T08:22:10.780Z,63.05
2017-08-17T08:24:38.300Z,63.13
2017-08-17T08:27:05.817Z,63.02
2017-08-17T08:29:33.366Z,63.12
2017-08-17T08:32:00.879Z,63.07
2017-08-17T08:34:29.615Z,63.02
2017-08-17T08:36:58.082Z,62.97
2017-08-17T08:39:27.147Z,63.08
2017-08-17T08:41:55.895Z,63.14
2017-08-17T08:44:24.924Z,62.89
2017-08-17T08:46:53.794Z,63.02
2017-08-17T08:49:22.573Z,62.99
2017-08-17T08:51:50.960Z,62.93
2017-08-17T08:54:20.217Z,62.91
2017-08-17T08:56:49.305Z,62.96
2017-08-17T08:59:18.116Z,63.04
2017-08-17T09:01:46.863Z,63.12
2017-08-17T09:04:15.727Z,62.91
2017-08-17T09:06:44.694Z,63.00
2017-08-17T09:09:12.583Z,62.91
2017-08-17T09:11:41.494Z,62.92
2017-08-17T09:14:10.157Z,62.97
2017-08-17T09:16:39.092Z,63.11
2017-08-17T09:19:07.787Z,63.02
2017-08-17T09:21:36.769Z,62.92
2017-08-17T09:24:05.321Z,63.10
2017-08-17T09:26:32.870Z,63.06
2017-08-17T09:29:00.485Z,63.15
2017-08-17T09:31:28.077Z,63.07
2017-08-17T09:33:55.635Z,62.95
2017-08-17T09:36:23.200Z,62.98
2017-08-17T09:38:50.751Z,62.96
2017-08-17T09:41:18.270Z,62.83
2017-08-17T09:43:45.877Z,62.95
2017-08-17T09:46:13.434Z,62.92
2017-08-17T09:48:40.976Z,62.91
2017-08-17T09:51:08.516Z,62.85
2017-08-17T09:53:36.033Z,62.91
2017-08-17T09:56:03.627Z,62.93
2017-08-17T09:58:31.185Z,62.83
2017-08-17T10:00:58.761Z,62.83
2017-08-17T10:03:26.277Z,62.89
2017-08-17T10:05:53.792Z,62.89
2017-08-17T10:08:21.344Z,62.81
2017-08-17T10:10:48.866Z,62.95
2017-08-17T10:13:16.422Z,62.84
2017-08-17T10:15:43.950Z,62.78
2017-08-17T10:18:11.501Z,62.69
2017-08-17T10:20:39.021Z,62.75
2017-08-17T10:23:06.542Z,62.71
2017-08-17T10:25:34.093Z,62.69
2017-08-17T10:28:01.610Z,62.64
2017-08-17T10:30:29.166Z,62.63
2017-08-17T10:32:56.708Z,62.52
2017-08-17T10:35:24.269Z,62.57
2017-08-17T10:37:51.788Z,62.54
2017-08-17T10:40:19.307Z,62.47
2017-08-17T10:42:46.859Z,62.49
2017-08-17T10:45:14.377Z,62.48
2017-08-17T10:47:41.947Z,62.50
2017-08-17T10:50:09.460Z,62.45
2017-08-17T10:52:37.026Z,62.48
2017-08-17T10:55:04.544Z,62.44
2017-08-17T10:57:32.062Z,62.41
2017-08-17T10:59:59.606Z,62.39
2017-08-17T11:02:27.122Z,62.34
2017-08-17T11:04:54.672Z,62.30
2017-08-17T11:07:22.284Z,62.26
2017-08-17T11:09:49.846Z,62.25
2017-08-17T11:12:17.369Z,62.24
2017-08-17T11:14:44.885Z,62.14
2017-08-17T11:17:12.438Z,62.16
2017-08-17T11:19:39.953Z,62.12
2017-08-17T11:22:07.541Z,62.12
2017-08-17T11:24:35.061Z,62.14
2017-08-17T11:27:02.651Z,62.11
2017-08-17T11:29:30.194Z,62.04
2017-08-17T11:31:57.781Z,62.10
2017-08-17T11:34:25.332Z,62.06
2017-08-17T11:36:52.900Z,62.11
2017-08-17T11:39:20.458Z,62.04
2017-08-17T11:41:47.977Z,62.07
2017-08-17T11:44:15.550Z,62.05
2017-08-17T11:46:43.064Z,62.02
2017-08-17T11:49:10.581Z,62.00
2017-08-17T11:51:38.158Z,62.00
2017-08-17T11:54:05.676Z,62.02
2017-08-17T11:56:33.276Z,62.01
2017-08-17T11:59:00.836Z,62.00
2017-08-17T12:01:28.349Z,62.07
2017-08-17T12:03:55.901Z,61.99
2017-08-17T12:06:23.516Z,61.95
2017-08-17T12:08:51.073Z,61.99
2017-08-17T12:11:18.636Z,62.02
2017-08-17T12:13:46.156Z,61.98
2017-08-17T12:16:13.709Z,61.94
2017-08-17T12:18:41.315Z,61.96
2017-08-17T12:21:08.938Z,62.02
2017-08-17T12:23:36.531Z,61.95
2017-08-17T12:26:04.098Z,61.90
2017-08-17T12:28:31.656Z,62.05
2017-08-17T12:30:59.173Z,61.96
2017-08-17T12:33:26.733Z,62.04
2017-08-17T12:35:54.245Z,62.05
2017-08-17T12:38:21.791Z,62.08
2017-08-17T12:40:49.352Z,62.04
2017-08-17T12:43:16.917Z,62.01
2017-08-17T12:45:44.473Z,61.88
2017-08-17T12:48:12.151Z,62.09
2017-08-17T12:50:39.706Z,62.00
2017-08-17T12:53:07.217Z,61.96
2017-08-17T12:55:34.787Z,62.07
2017-08-17T12:58:02.313Z,61.96
2017-08-17T13:00:29.877Z,61.98
2017-08-17T13:02:57.393Z,62.09
2017-08-17T13:05:24.950Z,62.03
2017-08-17T13:07:52.510Z,62.05
2017-08-17T13:10:20.028Z,62.03
2017-08-17T13:12:47.575Z,62.14
2017-08-17T13:15:15.104Z,62.10
2017-08-17T13:17:42.722Z,62.01
2017-08-17T13:20:10.240Z,62.05
2017-08-17T13:22:37.750Z,62.07
2017-08-17T13:25:05.328Z,62.07
2017-08-17T13:27:32.854Z,62.03
2017-08-17T13:30:00.455Z,62.09
2017-08-17T13:32:27.980Z,62.12
2017-08-17T13:34:55.505Z,62.07
2017-08-17T13:37:23.048Z,62.12
2017-08-17T13:39:50.587Z,62.14
2017-08-17T13:42:18.165Z,62.13
2017-08-17T13:44:45.683Z,61.99
2017-08-17T13:47:13.202Z,62.03
2017-08-17T13:49:40.756Z,62.09
2017-08-17T13:52:08.270Z,61.99
2017-08-17T13:54:35.844Z,62.19
2017-08-17T13:57:03.361Z,62.09
2017-08-17T13:59:30.967Z,62.08
2017-08-17T14:01:58.524Z,62.13
2017-08-17T14:04:26.048Z,62.14
2017-08-17T14:06:53.643Z,62.17
2017-08-17T14:09:21.176Z,61.93
2017-08-17T14:11:48.701Z,62.21
2017-08-17T14:14:16.252Z,62.16
2017-08-17T14:16:43.767Z,62.14
2017-08-17T14:19:11.316Z,62.25
2017-08-17T14:21:38.830Z,62.10
2017-08-17T14:24:06.460Z,62.17
2017-08-17T14:26:33.978Z,62.17
2017-08-17T14:29:01.493Z,62.21
2017-08-17T14:31:29.053Z,62.13
2017-08-17T14:33:56.600Z,62.15
2017-08-17T14:36:24.161Z,62.10
2017-08-17T14:38:53.717Z,62.17
2017-08-17T14:41:21.280Z,62.07
2017-08-17T14:43:48.804Z,62.17
2017-08-17T14:46:16.319Z,62.16
2017-08-17T14:48:43.870Z,62.14
2017-08-17T14:51:11.389Z,62.11
2017-08-17T14:53:38.936Z,62.15
2017-08-17T14:56:06.477Z,62.22
2017-08-17T14:58:34.027Z,62.13
2017-08-17T15:01:01.545Z,62.17
2017-08-17T15:03:29.062Z,62.13
2017-08-17T15:05:56.613Z,62.18
2017-08-17T15:08:24.138Z,62.19
2017-08-17T15:10:51.685Z,62.15
2017-08-17T15:13:19.273Z,62.36
2017-08-17T15:15:46.847Z,62.41
2017-08-17T15:18:14.368Z,62.31
2017-08-17T15:20:41.884Z,62.32
2017-08-17T15:23:09.444Z,62.35
2017-08-17T15:25:36.960Z,62.34
2017-08-17T15:28:04.520Z,62.33
2017-08-17T15:30:32.047Z,62.32
2017-08-17T15:32:59.624Z,62.47
2017-08-17T15:35:27.153Z,62.36
2017-08-17T15:37:54.673Z,62.33
2017-08-17T15:40:22.226Z,62.40
2017-08-17T15:42:49.742Z,62.17
2017-08-17T15:45:17.318Z,62.36
2017-08-17T15:47:44.833Z,62.36
2017-08-17T15:50:12.345Z,62.33
2017-08-17T15:52:39.893Z,62.35
2017-08-17T15:55:07.412Z,62.36
2017-08-17T15:57:34.969Z,62.30
2017-08-17T16:00:02.484Z,62.39
2017-08-17T16:02:30.051Z,62.35
2017-08-17T16:04:57.567Z,62.51
2017-08-17T16:07:25.081Z,62.49
2017-08-17T16:09:52.631Z,62.39
2017-08-17T16:12:20.150Z,62.35
2017-08-17T16:14:47.698Z,62.43
2017-08-17T16:17:15.213Z,62.36
2017-08-17T16:19:42.786Z,62.40
2017-08-17T16:22:10.298Z,62.43
2017-08-17T16:24:37.818Z,62.46
2017-08-17T16:27:05.386Z,62.40
2017-08-17T16:29:32.908Z,62.46
2017-08-17T16:32:00.496Z,62.43
2017-08-17T16:34:28.018Z,62.42
2017-08-17T16:36:55.534Z,62.35
2017-08-17T16:39:23.082Z,62.42
2017-08-17T16:41:50.607Z,62.37
2017-08-17T16:44:18.201Z,62.33
2017-08-17T16:46:45.741Z,62.48
2017-08-17T16:49:13.257Z,62.40
2017-08-17T16:51:40.801Z,62.47
2017-08-17T16:54:08.318Z,62.38
2017-08-17T16:56:35.865Z,62.38
2017-08-17T16:59:03.381Z,62.41
2017-08-17T17:01:30.949Z,62.40
2017-08-17T17:03:58.473Z,62.34
2017-08-17T17:06:25.994Z,62.34
2017-08-17T17:08:53.553Z,62.40
2017-08-17T17:11:21.080Z,62.40
2017-08-17T17:13:48.621Z,62.37
2017-08-17T17:16:16.143Z,62.34
2017-08-17T17:18:43.729Z,62.38
2017-08-17T17:21:11.248Z,62.32
2017-08-17T17:23:38.764Z,62.35
2017-08-17T17:26:06.349Z,62.31
2017-08-17T17:28:33.857Z,62.35
2017-08-17T17:31:01.408Z,62.31
2017-08-17T17:33:29.226Z,62.34
2017-08-17T17:35:56.778Z,62.30
2017-08-17T17:38:24.292Z,62.35
2017-08-17T17:40:51.801Z,62.30
2017-08-17T17:43:19.350Z,62.46
2017-08-17T17:45:46.876Z,62.40
2017-08-17T17:48:14.606Z,62.40
2017-08-17T17:50:43.474Z,62.87
2017-08-17T17:53:11.461Z,62.74
2017-08-17T17:55:40.160Z,62.69
2017-08-17T17:58:07.788Z,62.99
2017-08-17T18:00:35.346Z,63.08
2017-08-17T18:03:02.866Z,62.90
2017-08-17T18:05:30.593Z,63.07
2017-08-17T18:07:58.103Z,63.14
2017-08-17T18:10:25.620Z,63.16
2017-08-17T18:12:53.175Z,63.12
2017-08-17T18:15:20.698Z,63.06
2017-08-17T18:17:48.271Z,63.30
2017-08-17T18:20:15.807Z,63.11
2017-08-17T18:22:43.330Z,63.18
2017-08-17T18:25:10.886Z,62.83
2017-08-17T18:27:38.411Z,62.58
2017-08-17T18:30:05.955Z,62.67
2017-08-17T18:32:33.482Z,62.38
2017-08-17T18:35:01.055Z,62.24
2017-08-17T18:37:28.579Z,62.17
2017-08-17T18:39:56.094Z,62.08
2017-08-17T18:42:23.651Z,62.00
2017-08-17T18:44:51.194Z,61.95
2017-08-17T18:47:18.739Z,61.97
2017-08-17T18:49:46.260Z,61.96
2017-08-17T18:52:13.812Z,61.81
2017-08-17T18:54:41.330Z,61.93
2017-08-17T18:57:08.901Z,61.88
2017-08-17T18:59:36.425Z,61.85
2017-08-17T19:02:03.944Z,61.78
2017-08-17T19:04:31.486Z,61.83
2017-08-17T19:06:59.015Z,61.84
2017-08-17T19:09:26.561Z,61.89
2017-08-17T19:11:54.079Z,61.90
2017-08-17T19:14:21.639Z,61.96
2017-08-17T19:16:49.161Z,61.99
2017-08-17T19:19:16.677Z,62.09
2017-08-17T19:21:44.237Z,62.12
2017-08-17T19:24:11.765Z,62.07
2017-08-17T19:26:39.321Z,62.09
2017-08-17T19:29:06.840Z,61.95
2017-08-17T19:31:34.485Z,61.97
2017-08-17T19:34:02.545Z,62.10
2017-08-17T19:36:30.505Z,61.99
2017-08-17T19:38:58.361Z,61.54
2017-08-17T19:41:26.490Z,61.49
2017-08-17T19:43:54.745Z,61.31
2017-08-17T19:46:22.779Z,61.47
2017-08-17T19:48:50.581Z,61.38
2017-08-17T19:51:18.534Z,60.88
2017-08-17T19:53:46.504Z,61.06
2017-08-17T19:56:15.040Z,61.19
2017-08-17T19:58:42.627Z,61.20
2017-08-17T20:01:10.176Z,61.12
2017-08-17T20:03:37.705Z,61.20
2017-08-17T20:06:05.278Z,61.19
2017-08-17T20:08:32.797Z,61.32
2017-08-17T20:11:00.315Z,61.45
2017-08-17T20:13:27.865Z,61.41
2017-08-17T20:15:55.384Z,61.46
2017-08-17T20:18:22.941Z,61.42
2017-08-17T20:20:50.460Z,61.29
2017-08-17T20:23:18.013Z,61.32
2017-08-17T20:25:45.794Z,61.21
2017-08-17T20:28:13.386Z,60.76
2017-08-17T20:30:41.031Z,61.08
2017-08-17T20:33:09.111Z,61.18
2017-08-17T20:35:37.680Z,61.08
2017-08-17T20:38:05.552Z,60.89
2017-08-17T20:40:33.834Z,60.76
2017-08-17T20:43:01.410Z,61.02
2017-08-17T20:45:29.615Z,60.72
2017-08-17T20:47:57.736Z,60.96
2017-08-17T20:50:25.909Z,60.73
2017-08-17T20:52:53.504Z,60.85
2017-08-17T20:55:21.542Z,60.88
2017-08-17T20:57:49.112Z,60.79
2017-08-17T21:02:51.465Z,60.64
2017-08-17T21:05:19.155Z,60.31
2017-08-17T21:07:46.919Z,60.54
2017-08-17T21:10:14.811Z,60.30
2017-08-17T21:12:43.021Z,60.55
2017-08-17T21:15:11.009Z,60.39
2017-08-17T21:17:38.799Z,60.39
2017-08-17T21:20:06.404Z,60.31
2017-08-17T21:22:34.117Z,60.37
2017-08-17T21:25:01.816Z,60.64
2017-08-17T21:27:29.637Z,60.70
2017-08-17T21:29:57.455Z,60.76
2017-08-17T21:32:25.468Z,60.79
2017-08-17T21:34:55.246Z,60.87
2017-08-17T21:37:23.828Z,60.92
2017-08-17T21:39:51.376Z,60.93
2017-08-17T21:42:18.909Z,61.03
2017-08-17T21:44:46.473Z,61.04
2017-08-17T21:47:14.068Z,61.13
2017-08-17T21:49:41.621Z,61.18
2017-08-17T21:52:09.137Z,61.13
2017-08-17T21:54:36.706Z,61.15
2017-08-17T21:57:04.234Z,61.15
2017-08-17T21:59:31.750Z,61.25
2017-08-17T22:01:59.312Z,61.30
2017-08-17T22:04:26.834Z,61.07
2017-08-17T22:06:54.384Z,61.00
2017-08-17T22:09:21.906Z,60.94
2017-08-17T22:11:49.564Z,60.81
2017-08-17T22:14:17.086Z,60.77
2017-08-17T22:16:44.682Z,60.87
2017-08-17T22:19:12.276Z,60.74
2017-08-17T22:21:39.794Z,60.83
2017-08-17T22:24:07.355Z,60.77
2017-08-17T22:26:34.949Z,60.94
2017-08-17T22:29:02.508Z,60.90
2017-08-17T22:31:30.023Z,60.86
2017-08-17T22:33:57.593Z,60.91
2017-08-17T22:36:25.210Z,60.97
2017-08-17T22:38:52.738Z,61.08
2017-08-17T22:41:20.334Z,61.03
2017-08-17T22:43:47.888Z,61.27
2017-08-17T22:46:15.449Z,61.42
2017-08-17T22:48:42.961Z,61.52
2017-08-17T22:51:10.526Z,61.49
2017-08-17T22:53:38.041Z,61.50
2017-08-17T22:56:05.558Z,61.64
2017-08-17T22:58:33.121Z,61.69
2017-08-17T23:01:00.647Z,61.77
2017-08-17T23:03:28.201Z,61.74
2017-08-17T23:05:55.724Z,61.89
2017-08-17T23:08:23.276Z,62.00
2017-08-17T23:10:50.792Z,62.10
2017-08-17T23:13:18.333Z,62.25
2017-08-17T23:15:45.880Z,62.34
2017-08-17T23:18:13.405Z,62.55
2017-08-17T23:20:40.974Z,62.65
2017-08-17T23:23:08.512Z,62.99
2017-08-17T23:25:36.078Z,63.07
2017-08-17T23:28:03.593Z,63.09
2017-08-17T23:30:31.125Z,63.07
2017-08-17T23:32:58.681Z,63.00
2017-08-17T23:35:26.239Z,62.62
2017-08-17T23:37:53.802Z,62.57
2017-08-17T23:40:21.318Z,62.62
2017-08-17T23:42:48.850Z,62.63
2017-08-17T23:45:16.408Z,62.53
2017-08-17T23:47:43.932Z,62.46
2017-08-17T23:50:11.495Z,62.45
2017-08-17T23:52:39.009Z,62.52
2017-08-17T23:55:06.573Z,62.58
2017-08-17T23:57:34.110Z,62.53
